Kemptville, Canada
Current Conditions -  °F | °C
As of 1:00 AM on Sunday 23 Nov 2014 (Local Time) from CYOW Reporting Station
Haze Haze  
Wind Chill: 31°   Ceiling: 300
Heat Index: 37°   Visibility: 2mi
Dew Point: 37°   Wind: 8mph
Humidity: 100%   Direction: 220°SW
Pressure: 29.9"   Gusts: NA
Location:  45.02°N, 75.65°W
Report Text: CYOW 230600Z 22007KT 2SM BR OVC003 03/03 A2990 RMK SC8 SLP130
Loading
Personal Weather Stations






























Interactive Weather Map New forecast layout! Learn more

10-Day Weather Forecast

Advertisements
Track Severe Weather on mobile